sensor_id;sensor_type;location;lat;lon;timestamp;pressure;altitude;pressure_sealevel;temperature;humidity
72086;BME280;64750;52.134;5.424;2023-07-16T00:01:56;100939.31;;;20.08;54.04
72086;BME280;64750;52.134;5.424;2023-07-16T00:04:22;100947.47;;;20.07;53.96
72086;BME280;64750;52.134;5.424;2023-07-16T00:06:49;100944.09;;;20.05;53.84
72086;BME280;64750;52.134;5.424;2023-07-16T00:09:16;100944.97;;;20.05;54.03
72086;BME280;64750;52.134;5.424;2023-07-16T00:11:42;100958.47;;;20.04;54.04
72086;BME280;64750;52.134;5.424;2023-07-16T00:14:10;100943.28;;;20.04;54.11
72086;BME280;64750;52.134;5.424;2023-07-16T00:16:37;100954.94;;;20.03;54.05
72086;BME280;64750;52.134;5.424;2023-07-16T00:19:04;100938.69;;;19.96;53.31
72086;BME280;64750;52.134;5.424;2023-07-16T00:21:31;100945.03;;;19.95;53.67
72086;BME280;64750;52.134;5.424;2023-07-16T00:23:58;100945.03;;;19.95;53.45
72086;BME280;64750;52.134;5.424;2023-07-16T00:26:27;100943.66;;;19.91;53.46
72086;BME280;64750;52.134;5.424;2023-07-16T00:28:53;100940.00;;;19.92;53.23
72086;BME280;64750;52.134;5.424;2023-07-16T00:31:20;100943.34;;;19.94;53.81
72086;BME280;64750;52.134;5.424;2023-07-16T00:33:47;100947.53;;;19.97;53.43
72086;BME280;64750;52.134;5.424;2023-07-16T00:36:14;100949.38;;;19.96;53.27
72086;BME280;64750;52.134;5.424;2023-07-16T00:38:40;100947.03;;;19.93;53.63
72086;BME280;64750;52.134;5.424;2023-07-16T00:41:08;100951.50;;;19.93;53.08
72086;BME280;64750;52.134;5.424;2023-07-16T00:43:35;100953.34;;;19.92;53.20
72086;BME280;64750;52.134;5.424;2023-07-16T00:46:02;100956.84;;;19.93;53.97
72086;BME280;64750;52.134;5.424;2023-07-16T00:48:28;100956.28;;;19.89;53.87
72086;BME280;64750;52.134;5.424;2023-07-16T00:50:56;100953.13;;;19.86;53.54
72086;BME280;64750;52.134;5.424;2023-07-16T00:53:23;100964.44;;;19.88;54.09
72086;BME280;64750;52.134;5.424;2023-07-16T00:55:50;100967.28;;;19.86;53.56
72086;BME280;64750;52.134;5.424;2023-07-16T00:58:16;100960.25;;;19.85;53.68
72086;BME280;64750;52.134;5.424;2023-07-16T01:00:43;100970.09;;;19.85;54.12
72086;BME280;64750;52.134;5.424;2023-07-16T01:03:13;100965.00;;;19.81;53.71
72086;BME280;64750;52.134;5.424;2023-07-16T01:05:45;100967.84;;;19.80;53.89
72086;BME280;64750;52.134;5.424;2023-07-16T01:08:20;100962.66;;;19.78;54.26
72086;BME280;64750;52.134;5.424;2023-07-16T01:10:49;100967.13;;;19.78;53.93
72086;BME280;64750;52.134;5.424;2023-07-16T01:13:15;100959.44;;;19.75;53.69
72086;BME280;64750;52.134;5.424;2023-07-16T01:15:42;100963.09;;;19.74;53.83
72086;BME280;64750;52.134;5.424;2023-07-16T01:18:09;100954.84;;;19.67;54.20
72086;BME280;64750;52.134;5.424;2023-07-16T01:20:35;100956.97;;;19.63;54.34
72086;BME280;64750;52.134;5.424;2023-07-16T01:23:35;100954.63;;;19.60;54.36
72086;BME280;64750;52.134;5.424;2023-07-16T01:31:46;100944.25;;;19.57;54.53
72086;BME280;64750;52.134;5.424;2023-07-16T01:34:13;100952.00;;;19.50;54.74
72086;BME280;64750;52.134;5.424;2023-07-16T01:36:41;100957.06;;;19.54;54.91
72086;BME280;64750;52.134;5.424;2023-07-16T01:39:07;100958.19;;;19.51;55.08
72086;BME280;64750;52.134;5.424;2023-07-16T01:41:34;100957.63;;;19.47;54.68
72086;BME280;64750;52.134;5.424;2023-07-16T01:44:02;100952.75;;;19.43;55.04
72086;BME280;64750;52.134;5.424;2023-07-16T01:46:29;100952.47;;;19.46;55.44
72086;BME280;64750;52.134;5.424;2023-07-16T01:48:56;100962.13;;;19.47;55.18
72086;BME280;64750;52.134;5.424;2023-07-16T01:51:22;100952.75;;;19.43;55.54
72086;BME280;64750;52.134;5.424;2023-07-16T01:53:49;100957.09;;;19.44;55.37
72086;BME280;64750;52.134;5.424;2023-07-16T01:56:16;100956.78;;;19.47;55.79
72086;BME280;64750;52.134;5.424;2023-07-16T01:58:43;100953.13;;;19.48;55.28
72086;BME280;64750;52.134;5.424;2023-07-16T02:01:09;100959.06;;;19.42;55.23
72086;BME280;64750;52.134;5.424;2023-07-16T02:03:36;100962.72;;;19.41;55.95
72086;BME280;64750;52.134;5.424;2023-07-16T02:06:03;100954.56;;;19.42;55.81
72086;BME280;64750;52.134;5.424;2023-07-16T02:08:29;100966.66;;;19.37;55.80
72086;BME280;64750;52.134;5.424;2023-07-16T02:10:56;100963.00;;;19.38;56.22
72086;BME280;64750;52.134;5.424;2023-07-16T02:13:22;100956.28;;;19.33;56.41
72086;BME280;64750;52.134;5.424;2023-07-16T02:15:49;100957.28;;;19.32;56.67
72086;BME280;64750;52.134;5.424;2023-07-16T02:18:18;100951.53;;;19.27;56.47
72086;BME280;64750;52.134;5.424;2023-07-16T02:20:44;100958.56;;;19.28;56.74
72086;BME280;64750;52.134;5.424;2023-07-16T02:23:11;100961.91;;;19.30;56.90
72086;BME280;64750;52.134;5.424;2023-07-16T02:25:37;100949.47;;;19.21;56.98
72086;BME280;64750;52.134;5.424;2023-07-16T02:28:04;100964.47;;;19.22;57.12
72086;BME280;64750;52.134;5.424;2023-07-16T02:30:30;100960.97;;;19.22;56.95
72086;BME280;64750;52.134;5.424;2023-07-16T02:32:57;100964.47;;;19.22;57.20
72086;BME280;64750;52.134;5.424;2023-07-16T02:35:23;100963.50;;;19.23;57.06
72086;BME280;64750;52.134;5.424;2023-07-16T02:37:50;100968.41;;;19.18;57.18
72086;BME280;64750;52.134;5.424;2023-07-16T02:40:16;100969.09;;;19.20;57.36
72086;BME280;64750;52.134;5.424;2023-07-16T02:42:43;100967.28;;;19.21;57.41
72086;BME280;64750;52.134;5.424;2023-07-16T02:45:09;100963.75;;;19.20;57.35
72086;BME280;64750;52.134;5.424;2023-07-16T02:47:36;100964.63;;;19.21;57.45
72086;BME280;64750;52.134;5.424;2023-07-16T02:50:02;100958.31;;;19.22;57.48
72086;BME280;64750;52.134;5.424;2023-07-16T02:52:29;100961.09;;;19.20;57.59
72086;BME280;64750;52.134;5.424;2023-07-16T02:54:55;100968.41;;;19.18;57.74
72086;BME280;64750;52.134;5.424;2023-07-16T02:57:22;100960.56;;;19.16;58.20
72086;BME280;64750;52.134;5.424;2023-07-16T02:59:49;100965.03;;;19.16;57.60
72086;BME280;64750;52.134;5.424;2023-07-16T03:02:15;100971.50;;;19.13;57.87
72086;BME280;64750;52.134;5.424;2023-07-16T03:04:42;100972.38;;;19.14;57.78
72086;BME280;64750;52.134;5.424;2023-07-16T03:07:08;100969.00;;;19.12;58.27
72086;BME280;64750;52.134;5.424;2023-07-16T03:09:35;100970.69;;;19.13;58.18
72086;BME280;64750;52.134;5.424;2023-07-16T03:12:01;100970.13;;;19.09;58.14
72086;BME280;64750;52.134;5.424;2023-07-16T03:14:28;100974.63;;;19.09;58.04
72086;BME280;64750;52.134;5.424;2023-07-16T03:16:54;100972.94;;;19.08;58.36
72086;BME280;64750;52.134;5.424;2023-07-16T03:19:21;100973.91;;;19.07;58.41
72086;BME280;64750;52.134;5.424;2023-07-16T03:21:47;100980.94;;;19.08;58.28
72086;BME280;64750;52.134;5.424;2023-07-16T03:24:16;100979.94;;;19.09;58.14
72086;BME280;64750;52.134;5.424;2023-07-16T03:26:42;100969.88;;;19.02;58.42
72086;BME280;64750;52.134;5.424;2023-07-16T03:29:09;100976.31;;;19.00;58.27
72086;BME280;64750;52.134;5.424;2023-07-16T03:31:36;100970.03;;;19.01;58.56
72086;BME280;64750;52.134;5.424;2023-07-16T03:34:02;100970.16;;;18.99;58.45
72086;BME280;64750;52.134;5.424;2023-07-16T03:36:29;100976.47;;;18.98;58.46
72086;BME280;64750;52.134;5.424;2023-07-16T03:38:56;100976.06;;;18.93;58.42
72086;BME280;64750;52.134;5.424;2023-07-16T03:41:22;100980.53;;;18.93;58.63
72086;BME280;64750;52.134;5.424;2023-07-16T03:43:48;100985.03;;;18.92;58.93
72086;BME280;64750;52.134;5.424;2023-07-16T03:46:15;100988.84;;;18.90;58.75
72086;BME280;64750;52.134;5.424;2023-07-16T03:48:42;100992.44;;;18.89;58.99
72086;BME280;64750;52.134;5.424;2023-07-16T03:51:08;100999.88;;;18.85;58.81
72086;BME280;64750;52.134;5.424;2023-07-16T03:53:35;100999.88;;;18.85;58.60
72086;BME280;64750;52.134;5.424;2023-07-16T03:56:01;101004.06;;;18.88;58.72
72086;BME280;64750;52.134;5.424;2023-07-16T03:58:28;101003.50;;;18.84;59.21
72086;BME280;64750;52.134;5.424;2023-07-16T04:00:55;101007.03;;;18.84;58.79
72086;BME280;64750;52.134;5.424;2023-07-16T04:03:22;101010.53;;;18.85;58.93
72086;BME280;64750;52.134;5.424;2023-07-16T04:05:49;101026.66;;;18.83;58.85
72086;BME280;64750;52.134;5.424;2023-07-16T04:08:15;101021.59;;;18.80;58.98
72086;BME280;64750;52.134;5.424;2023-07-16T04:10:42;101023.72;;;18.77;59.03
72086;BME280;64750;52.134;5.424;2023-07-16T04:13:08;101019.63;;;18.73;58.98
72086;BME280;64750;52.134;5.424;2023-07-16T04:15:35;101017.81;;;18.73;59.12
72086;BME280;64750;52.134;5.424;2023-07-16T04:18:02;101027.34;;;18.76;58.90
72086;BME280;64750;52.134;5.424;2023-07-16T04:20:30;101028.19;;;18.76;59.03
72086;BME280;64750;52.134;5.424;2023-07-16T04:22:57;101029.31;;;18.74;58.94
72086;BME280;64750;52.134;5.424;2023-07-16T04:25:23;101027.75;;;18.71;59.08
72086;BME280;64750;52.134;5.424;2023-07-16T04:27:50;101028.75;;;18.70;59.16
72086;BME280;64750;52.134;5.424;2023-07-16T04:30:16;101033.38;;;18.68;59.04
72086;BME280;64750;52.134;5.424;2023-07-16T04:32:43;101044.19;;;18.66;59.28
72086;BME280;64750;52.134;5.424;2023-07-16T04:35:09;101045.84;;;18.67;59.30
72086;BME280;64750;52.134;5.424;2023-07-16T04:37:36;101055.09;;;18.63;59.07
72086;BME280;64750;52.134;5.424;2023-07-16T04:40:03;101053.41;;;18.62;59.55
72086;BME280;64750;52.134;5.424;2023-07-16T04:42:30;101050.75;;;18.62;59.46
72086;BME280;64750;52.134;5.424;2023-07-16T04:44:57;101048.50;;;18.67;59.19
72086;BME280;64750;52.134;5.424;2023-07-16T04:47:23;101053.97;;;18.66;59.17
72086;BME280;64750;52.134;5.424;2023-07-16T04:49:50;101060.41;;;18.63;59.16
72086;BME280;64750;52.134;5.424;2023-07-16T04:52:16;101062.94;;;18.65;59.25
72086;BME280;64750;52.134;5.424;2023-07-16T04:54:43;101060.00;;;18.68;58.86
72086;BME280;64750;52.134;5.424;2023-07-16T04:57:09;101059.16;;;18.67;58.85
72086;BME280;64750;52.134;5.424;2023-07-16T04:59:36;101058.31;;;18.67;59.03
72086;BME280;64750;52.134;5.424;2023-07-16T05:02:05;101074.44;;;18.65;58.75
72086;BME280;64750;52.134;5.424;2023-07-16T05:04:33;101069.38;;;18.62;59.13
72086;BME280;64750;52.134;5.424;2023-07-16T05:07:04;101076.94;;;18.57;59.02
72086;BME280;64750;52.134;5.424;2023-07-16T05:09:30;101068.94;;;18.57;59.01
72086;BME280;64750;52.134;5.424;2023-07-16T05:11:57;101069.38;;;18.62;59.21
72086;BME280;64750;52.134;5.424;2023-07-16T05:14:26;101070.50;;;18.60;58.84
72086;BME280;64750;52.134;5.424;2023-07-16T05:16:56;101058.31;;;18.57;59.03
72086;BME280;64750;52.134;5.424;2023-07-16T05:19:23;101069.09;;;18.56;59.23
72086;BME280;64750;52.134;5.424;2023-07-16T05:21:49;101068.28;;;18.55;59.12
72086;BME280;64750;52.134;5.424;2023-07-16T05:24:16;101067.28;;;18.56;59.14
72086;BME280;64750;52.134;5.424;2023-07-16T05:26:42;101062.09;;;18.55;59.30
72086;BME280;64750;52.134;5.424;2023-07-16T05:29:09;101076.41;;;18.53;59.23
72086;BME280;64750;52.134;5.424;2023-07-16T05:31:35;101071.63;;;18.47;59.43
72086;BME280;64750;52.134;5.424;2023-07-16T05:34:02;101079.47;;;18.49;59.28
72086;BME280;64750;52.134;5.424;2023-07-16T05:36:29;101082.84;;;18.51;59.13
72086;BME280;64750;52.134;5.424;2023-07-16T05:38:55;101085.50;;;18.51;58.94
72086;BME280;64750;52.134;5.424;2023-07-16T05:41:22;101099.78;;;18.50;59.22
72086;BME280;64750;52.134;5.424;2023-07-16T05:43:49;101097.53;;;18.45;59.24
72086;BME280;64750;52.134;5.424;2023-07-16T05:46:16;101100.03;;;18.47;58.85
72086;BME280;64750;52.134;5.424;2023-07-16T05:48:43;101098.81;;;18.51;59.26
72086;BME280;64750;52.134;5.424;2023-07-16T05:51:09;101112.13;;;18.51;59.22
72086;BME280;64750;52.134;5.424;2023-07-16T05:53:36;101112.22;;;18.49;58.98
72086;BME280;64750;52.134;5.424;2023-07-16T05:56:02;101113.09;;;18.50;59.09
72086;BME280;64750;52.134;5.424;2023-07-16T05:58:29;101113.09;;;18.50;59.21
72086;BME280;64750;52.134;5.424;2023-07-16T06:00:56;101114.50;;;18.54;58.72
72086;BME280;64750;52.134;5.424;2023-07-16T06:03:22;101113.78;;;18.52;58.99
72086;BME280;64750;52.134;5.424;2023-07-16T06:05:49;101110.28;;;18.51;59.48
72086;BME280;64750;52.134;5.424;2023-07-16T06:08:15;101115.47;;;18.53;58.83
72086;BME280;64750;52.134;5.424;2023-07-16T06:10:42;101111.97;;;18.52;59.05
72086;BME280;64750;52.134;5.424;2023-07-16T06:13:08;101114.22;;;18.57;59.12
72086;BME280;64750;52.134;5.424;2023-07-16T06:15:36;101121.06;;;18.60;59.51
72086;BME280;64750;52.134;5.424;2023-07-16T06:18:02;101124.31;;;18.63;59.18
72086;BME280;64750;52.134;5.424;2023-07-16T06:20:29;101126.72;;;18.66;58.91
72086;BME280;64750;52.134;5.424;2023-07-16T06:22:56;101122.63;;;18.72;59.09
72086;BME280;64750;52.134;5.424;2023-07-16T06:25:22;101122.34;;;18.75;58.66
72086;BME280;64750;52.134;5.424;2023-07-16T06:27:49;101123.47;;;18.73;58.60
72086;BME280;64750;52.134;5.424;2023-07-16T06:30:15;101129.81;;;18.72;58.83
72086;BME280;64750;52.134;5.424;2023-07-16T06:32:42;101130.78;;;18.71;58.49
72086;BME280;64750;52.134;5.424;2023-07-16T06:35:08;101134.13;;;18.73;58.43
72086;BME280;64750;52.134;5.424;2023-07-16T06:37:35;101134.69;;;18.76;58.78
72086;BME280;64750;52.134;5.424;2023-07-16T06:40:02;101136.81;;;18.82;59.03
72086;BME280;64750;52.134;5.424;2023-07-16T06:42:29;101139.31;;;18.84;58.90
72086;BME280;64750;52.134;5.424;2023-07-16T06:44:56;101140.19;;;18.84;58.79
72086;BME280;64750;52.134;5.424;2023-07-16T06:47:23;101131.06;;;18.87;58.85
72086;BME280;64750;52.134;5.424;2023-07-16T06:49:49;101135.16;;;18.91;58.99
72086;BME280;64750;52.134;5.424;2023-07-16T06:52:20;101121.84;;;18.91;58.82
72086;BME280;64750;52.134;5.424;2023-07-16T06:54:47;101131.38;;;18.94;59.05
72086;BME280;64750;52.134;5.424;2023-07-16T06:57:14;101142.19;;;18.92;59.02
72086;BME280;64750;52.134;5.424;2023-07-16T06:59:41;101138.25;;;18.96;58.67
72086;BME280;64750;52.134;5.424;2023-07-16T07:02:07;101143.56;;;18.96;58.51
72086;BME280;64750;52.134;5.424;2023-07-16T07:04:33;101145.13;;;18.99;58.63
72086;BME280;64750;52.134;5.424;2023-07-16T07:07:03;101141.47;;;19.00;58.74
72086;BME280;64750;52.134;5.424;2023-07-16T07:09:29;101148.34;;;19.02;58.54
72086;BME280;64750;52.134;5.424;2023-07-16T07:11:55;101151.69;;;19.05;58.89
72086;BME280;64750;52.134;5.424;2023-07-16T07:14:22;101145.13;;;19.09;58.69
72086;BME280;64750;52.134;5.424;2023-07-16T07:16:49;101160.25;;;19.08;58.44
72086;BME280;64750;52.134;5.424;2023-07-16T07:19:15;101166.84;;;19.04;58.52
72086;BME280;64750;52.134;5.424;2023-07-16T07:21:41;101175.66;;;19.05;58.71
72086;BME280;64750;52.134;5.424;2023-07-16T07:24:08;101179.03;;;19.07;58.79
72086;BME280;64750;52.134;5.424;2023-07-16T07:26:34;101185.78;;;19.11;59.01
72086;BME280;64750;52.134;5.424;2023-07-16T07:29:01;101182.13;;;19.12;58.77
72086;BME280;64750;52.134;5.424;2023-07-16T07:31:27;101191.38;;;19.08;58.88
72086;BME280;64750;52.134;5.424;2023-07-16T07:33:54;101192.78;;;19.12;59.02
72086;BME280;64750;52.134;5.424;2023-07-16T07:36:20;101188.84;;;19.16;59.07
72086;BME280;64750;52.134;5.424;2023-07-16T07:38:47;101185.34;;;19.15;59.11
72086;BME280;64750;52.134;5.424;2023-07-16T07:41:13;101183.25;;;19.19;59.19
72086;BME280;64750;52.134;5.424;2023-07-16T07:43:40;101192.50;;;19.25;59.14
72086;BME280;64750;52.134;5.424;2023-07-16T07:46:06;101183.53;;;19.26;59.08
72086;BME280;64750;52.134;5.424;2023-07-16T07:48:33;101198.41;;;19.28;58.72
72086;BME280;64750;52.134;5.424;2023-07-16T07:51:02;101198.97;;;19.32;58.79
72086;BME280;64750;52.134;5.424;2023-07-16T07:53:28;101210.47;;;19.32;59.19
72086;BME280;64750;52.134;5.424;2023-07-16T07:55:55;101202.03;;;19.27;58.94
72086;BME280;64750;52.134;5.424;2023-07-16T07:58:21;101213.97;;;19.23;58.71
72086;BME280;64750;52.134;5.424;2023-07-16T08:00:48;101217.75;;;19.21;59.26
72086;BME280;64750;52.134;5.424;2023-07-16T08:03:14;101215.91;;;19.21;59.25
72086;BME280;64750;52.134;5.424;2023-07-16T08:05:41;101220.28;;;19.22;59.44
72086;BME280;64750;52.134;5.424;2023-07-16T08:08:07;101227.44;;;19.22;59.62
72086;BME280;64750;52.134;5.424;2023-07-16T08:10:34;101229.97;;;19.23;59.06
72086;BME280;64750;52.134;5.424;2023-07-16T08:13:03;101223.94;;;19.31;59.27
72086;BME280;64750;52.134;5.424;2023-07-16T08:15:29;101223.63;;;19.34;59.22
72086;BME280;64750;52.134;5.424;2023-07-16T08:17:55;101220.56;;;19.39;58.91
72086;BME280;64750;52.134;5.424;2023-07-16T08:20:27;101209.91;;;19.39;59.10
72086;BME280;64750;52.134;5.424;2023-07-16T08:22:55;101243.00;;;19.36;58.89
72086;BME280;64750;52.134;5.424;2023-07-16T08:25:22;101248.59;;;19.33;59.31
72086;BME280;64750;52.134;5.424;2023-07-16T08:27:48;101228.97;;;19.34;59.66
72086;BME280;64750;52.134;5.424;2023-07-16T08:30:15;101236.56;;;19.39;59.32
72086;BME280;64750;52.134;5.424;2023-07-16T08:32:41;101229.81;;;19.44;58.98
72086;BME280;64750;52.134;5.424;2023-07-16T08:35:08;101237.53;;;19.47;59.53
72086;BME280;64750;52.134;5.424;2023-07-16T08:37:45;101246.09;;;19.51;59.32
72086;BME280;64750;52.134;5.424;2023-07-16T08:40:12;101235.13;;;19.54;59.02
72086;BME280;64750;52.134;5.424;2023-07-16T08:42:40;101237.09;;;19.52;59.70
72086;BME280;64750;52.134;5.424;2023-07-16T08:45:07;101251.44;;;19.51;59.37
72086;BME280;64750;52.134;5.424;2023-07-16T08:47:35;101251.44;;;19.51;59.73
72086;BME280;64750;52.134;5.424;2023-07-16T08:50:03;101248.06;;;19.49;59.66
72086;BME280;64750;52.134;5.424;2023-07-16T08:52:30;101259.44;;;19.51;59.48
72086;BME280;64750;52.134;5.424;2023-07-16T08:54:58;101267.44;;;19.51;59.79
72086;BME280;64750;52.134;5.424;2023-07-16T08:57:25;101263.22;;;19.48;59.26
72086;BME280;64750;52.134;5.424;2023-07-16T08:59:52;101273.03;;;19.48;59.44
72086;BME280;64750;52.134;5.424;2023-07-16T09:02:20;101260.66;;;19.47;60.55
72086;BME280;64750;52.134;5.424;2023-07-16T09:04:48;101273.28;;;19.55;60.14
72086;BME280;64750;52.134;5.424;2023-07-16T09:07:15;101278.63;;;19.55;59.64
72086;BME280;64750;52.134;5.424;2023-07-16T09:09:41;101275.84;;;19.56;59.86
72086;BME280;64750;52.134;5.424;2023-07-16T09:12:12;101276.38;;;19.60;59.72
72086;BME280;64750;52.134;5.424;2023-07-16T09:14:40;101276.38;;;19.70;59.91
72086;BME280;64750;52.134;5.424;2023-07-16T09:17:07;101277.63;;;19.75;59.37
72086;BME280;64750;52.134;5.424;2023-07-16T09:19:35;101280.03;;;19.78;59.14
72086;BME280;64750;52.134;5.424;2023-07-16T09:22:02;101270.91;;;19.81;58.51
72086;BME280;64750;52.134;5.424;2023-07-16T09:24:29;101290.97;;;19.75;58.64
72086;BME280;64750;52.134;5.424;2023-07-16T09:26:55;101300.25;;;19.71;58.87
72086;BME280;64750;52.134;5.424;2023-07-16T09:29:25;101300.38;;;19.70;59.08
72086;BME280;64750;52.134;5.424;2023-07-16T09:31:58;101304.75;;;19.71;58.83
72086;BME280;64750;52.134;5.424;2023-07-16T09:34:28;101294.75;;;19.73;58.76
72086;BME280;64750;52.134;5.424;2023-07-16T09:36:59;101294.19;;;19.79;58.74
72086;BME280;64750;52.134;5.424;2023-07-16T09:39:27;101296.47;;;19.83;58.61
72086;BME280;64750;52.134;5.424;2023-07-16T09:41:54;101291.72;;;19.87;58.72
72086;BME280;64750;52.134;5.424;2023-07-16T09:44:22;101293.41;;;19.88;57.96
72086;BME280;64750;52.134;5.424;2023-07-16T09:46:49;101295.66;;;19.83;57.99
72086;BME280;64750;52.134;5.424;2023-07-16T09:49:16;101306.03;;;19.86;58.65
72086;BME280;64750;52.134;5.424;2023-07-16T09:51:43;101295.50;;;19.85;58.87
72086;BME280;64750;52.134;5.424;2023-07-16T09:54:14;101316.69;;;19.86;58.93
72086;BME280;64750;52.134;5.424;2023-07-16T09:56:45;101314.84;;;19.87;59.17
72086;BME280;64750;52.134;5.424;2023-07-16T09:59:14;101304.75;;;19.90;59.16
72086;BME280;64750;52.134;5.424;2023-07-16T10:01:42;101317.53;;;19.96;59.54
72086;BME280;64750;52.134;5.424;2023-07-16T10:04:11;101316.53;;;19.97;58.87
72086;BME280;64750;52.134;5.424;2023-07-16T10:09:33;101315.16;;;19.93;58.65
72086;BME280;64750;52.134;5.424;2023-07-16T10:12:17;101330.56;;;19.99;58.89
72086;BME280;64750;52.134;5.424;2023-07-16T10:14:49;101323.28;;;20.11;59.29
72086;BME280;64750;52.134;5.424;2023-07-16T10:17:21;101325.22;;;20.19;58.66
72086;BME280;64750;52.134;5.424;2023-07-16T10:20:08;101314.38;;;20.30;58.64
72086;BME280;64750;52.134;5.424;2023-07-16T10:25:10;101327.25;;;20.45;58.03
72086;BME280;64750;52.134;5.424;2023-07-16T10:27:37;101327.53;;;20.42;57.84
72086;BME280;64750;52.134;5.424;2023-07-16T10:30:04;101339.78;;;20.35;57.83
72086;BME280;64750;52.134;5.424;2023-07-16T10:32:32;101340.38;;;20.28;57.96
72086;BME280;64750;52.134;5.424;2023-07-16T10:35:00;101344.31;;;20.24;58.31
72086;BME280;64750;52.134;5.424;2023-07-16T10:37:27;101350.91;;;20.20;57.63
72086;BME280;64750;52.134;5.424;2023-07-16T10:39:55;101354.00;;;20.15;58.38
72086;BME280;64750;52.134;5.424;2023-07-16T10:42:24;101338.16;;;20.14;58.26
72086;BME280;64750;52.134;5.424;2023-07-16T10:44:53;101352.88;;;20.18;58.21
72086;BME280;64750;52.134;5.424;2023-07-16T10:47:22;101356.81;;;20.24;58.36
72086;BME280;64750;52.134;5.424;2023-07-16T10:49:50;101366.75;;;20.31;58.19
72086;BME280;64750;52.134;5.424;2023-07-16T10:52:20;101359.47;;;20.33;57.50
72086;BME280;64750;52.134;5.424;2023-07-16T10:54:47;101363.81;;;20.35;57.72
72086;BME280;64750;52.134;5.424;2023-07-16T10:57:16;101368.59;;;20.41;58.22
72086;BME280;64750;52.134;5.424;2023-07-16T10:59:44;101367.00;;;20.48;57.71
72086;BME280;64750;52.134;5.424;2023-07-16T11:02:12;101363.34;;;20.49;57.98
72086;BME280;64750;52.134;5.424;2023-07-16T11:04:42;101379.69;;;20.46;58.14
72086;BME280;64750;52.134;5.424;2023-07-16T11:07:10;101370.97;;;20.44;58.04
72086;BME280;64750;52.134;5.424;2023-07-16T11:09:44;101385.84;;;20.46;58.30
72086;BME280;64750;52.134;5.424;2023-07-16T11:12:13;101386.25;;;20.52;58.14
72086;BME280;64750;52.134;5.424;2023-07-16T11:14:47;101375.16;;;20.56;58.37
72086;BME280;64750;52.134;5.424;2023-07-16T11:17:15;101377.50;;;20.69;58.65
72086;BME280;64750;52.134;5.424;2023-07-16T11:19:45;101375.41;;;20.73;58.03
72086;BME280;64750;52.134;5.424;2023-07-16T11:22:13;101371.44;;;20.67;57.81
72086;BME280;64750;52.134;5.424;2023-07-16T11:24:47;101385.53;;;20.59;58.06
72086;BME280;64750;52.134;5.424;2023-07-16T11:27:22;101392.97;;;20.56;58.37
72086;BME280;64750;52.134;5.424;2023-07-16T11:29:57;101390.88;;;20.59;58.36
72086;BME280;64750;52.134;5.424;2023-07-16T11:34:57;101392.41;;;20.62;58.13
72086;BME280;64750;52.134;5.424;2023-07-16T11:37:25;101399.28;;;20.64;57.94
72086;BME280;64750;52.134;5.424;2023-07-16T11:40:07;101402.13;;;20.73;58.93
72086;BME280;64750;52.134;5.424;2023-07-16T11:42:35;101406.59;;;20.82;58.70
72086;BME280;64750;52.134;5.424;2023-07-16T11:45:03;101398.97;;;20.87;58.52
72086;BME280;64750;52.134;5.424;2023-07-16T11:47:31;101394.03;;;20.92;58.11
72086;BME280;64750;52.134;5.424;2023-07-16T11:49:58;101430.75;;;20.90;57.25
72086;BME280;64750;52.134;5.424;2023-07-16T11:52:29;101398.97;;;20.87;55.99
72086;BME280;64750;52.134;5.424;2023-07-16T11:54:57;101397.28;;;20.86;56.27
72086;BME280;64750;52.134;5.424;2023-07-16T11:57:27;101413.72;;;20.91;55.66
72086;BME280;64750;52.134;5.424;2023-07-16T11:59:54;101420.56;;;21.04;54.10
72086;BME280;64750;52.134;5.424;2023-07-16T12:02:21;101422.53;;;21.02;53.52
72086;BME280;64750;52.134;5.424;2023-07-16T12:04:51;101419.47;;;20.96;53.22
72086;BME280;64750;52.134;5.424;2023-07-16T12:07:32;101437.47;;;20.94;54.20
72086;BME280;64750;52.134;5.424;2023-07-16T12:10:03;101407.97;;;20.86;53.71
72086;BME280;64750;52.134;5.424;2023-07-16T12:12:30;101404.59;;;20.84;54.43
72086;BME280;64750;52.134;5.424;2023-07-16T12:14:57;101404.25;;;20.97;54.60
72086;BME280;64750;52.134;5.424;2023-07-16T12:17:29;101419.97;;;21.10;54.56
72086;BME280;64750;52.134;5.424;2023-07-16T12:19:56;101418.78;;;21.22;55.11
72086;BME280;64750;52.134;5.424;2023-07-16T12:22:23;101397.06;;;21.35;53.99
72086;BME280;64750;52.134;5.424;2023-07-16T12:24:50;101421.59;;;21.30;54.07
72086;BME280;64750;52.134;5.424;2023-07-16T12:27:17;101434.63;;;21.34;54.18
72086;BME280;64750;52.134;5.424;2023-07-16T12:29:44;101421.22;;;21.43;53.87
72086;BME280;64750;52.134;5.424;2023-07-16T12:32:10;101419.69;;;21.41;53.19
72086;BME280;64750;52.134;5.424;2023-07-16T12:34:37;101429.69;;;21.39;53.46
72086;BME280;64750;52.134;5.424;2023-07-16T12:37:04;101420.09;;;21.46;53.58
72086;BME280;64750;52.134;5.424;2023-07-16T12:39:31;101417.81;;;21.51;53.47
72086;BME280;64750;52.134;5.424;2023-07-16T12:41:57;101416.94;;;21.60;53.60
72086;BME280;64750;52.134;5.424;2023-07-16T12:44:24;101413.34;;;21.70;53.20
72086;BME280;64750;52.134;5.424;2023-07-16T12:46:51;101428.41;;;21.71;53.53
72086;BME280;64750;52.134;5.424;2023-07-16T12:49:18;101424.13;;;21.78;52.99
72086;BME280;64750;52.134;5.424;2023-07-16T12:51:45;101427.31;;;21.82;52.99
72086;BME280;64750;52.134;5.424;2023-07-16T12:54:12;101429.41;;;21.88;52.17
72086;BME280;64750;52.134;5.424;2023-07-16T12:56:38;101417.63;;;21.99;52.09
72086;BME280;64750;52.134;5.424;2023-07-16T12:59:05;101426.72;;;22.06;50.83
72086;BME280;64750;52.134;5.424;2023-07-16T13:01:32;101438.13;;;22.08;52.34
72086;BME280;64750;52.134;5.424;2023-07-16T13:03:58;101447.69;;;22.10;51.89
72086;BME280;64750;52.134;5.424;2023-07-16T13:06:25;101419.94;;;22.11;52.12